Terminal Aerodrome Forecast
Issued by NWS Green Bay, WI

Home | Current Version | Previous Version | Text Only | Print | Product List | Glossary On
Versions: 1 2 3 4 5 6 7 8 9 10 11 12 13 14 15 16 17 18 19 20 21 22 23 24 25 26 27 28 29 30 31 32 33 34 35 36 37 38 39
000
FTUS43 KGRB 020520
TAFGRB
TAF
KGRB 020520Z 0206/0306 VRB03KT 5SM BR SCT140 BKN200
     FM020900 VRB03KT 4SM BR FEW004 SCT140 BKN250
      TEMPO 0209/0213 1SM BR SCT004 BKN140
     FM021400 27004KT P6SM SCT020 BKN120
     FM022200 09003KT P6SM SCT030 BKN100 PROB30 0222/0224 5SM -SHRA
      BR BKN030
     FM030000 VRB03KT 5SM -SHRA BR BKN030 PROB30 0300/0304 4SM -TSRA
      BKN020CB=

USA.gov is the U.S. government's official web portal to all federal, state and local government web resources and services.